Time,TemperatureF,DewpointF,PressureIn,WindDirection,WindDirectionDegrees,WindSpeedMPH,WindSpeedGustMPH,Humidity,HourlyPrecipIn,Conditions,Clouds,dailyrainin,SoftwareType,DateUTC
2013-12-19 00:22:00,17.0,15.0,29.73,East,81,8.0,17.0,93,0.00,,,0.00,,2013-12-19 09:22:00,
2013-12-19 00:43:00,17.0,15.0,29.72,ENE,71,6.0,20.0,92,0.00,,,0.00,,2013-12-19 09:43:00,
2013-12-19 00:53:00,17.0,15.0,29.71,ENE,63,8.0,17.0,93,0.00,,,0.00,,2013-12-19 09:53:00,
2013-12-19 01:23:00,17.0,15.0,29.71,ENE,72,9.0,17.0,93,0.00,,,0.00,,2013-12-19 10:23:00,
2013-12-19 01:42:00,18.0,16.0,29.71,ENE,67,6.0,20.0,93,0.00,,,0.00,,2013-12-19 10:42:00,
2013-12-19 01:53:00,18.0,16.0,29.71,ENE,67,7.0,20.0,93,0.00,,,0.00,,2013-12-19 10:53:00,
2013-12-19 02:22:00,18.0,16.0,29.70,East,80,7.0,20.0,93,0.00,,,0.00,,2013-12-19 11:22:00,
2013-12-19 02:42:00,19.0,17.0,29.70,NE,46,6.0,20.0,93,0.00,,,0.00,,2013-12-19 11:42:00,
2013-12-19 02:52:00,19.0,17.0,29.70,ENE,60,7.0,17.0,93,0.00,,,0.00,,2013-12-19 11:52:00,
2013-12-19 03:21:00,20.0,18.0,29.70,NNE,27,7.0,15.0,93,0.00,,,0.00,,2013-12-19 12:21:00,
2013-12-19 03:42:00,20.0,18.0,29.70,ENE,71,7.0,16.0,93,0.00,,,0.00,,2013-12-19 12:42:00,
2013-12-19 03:52:00,20.0,18.0,29.70,ENE,70,5.0,14.0,93,0.00,,,0.00,,2013-12-19 12:52:00,
2013-12-19 04:11:00,20.0,19.0,29.71,ENE,63,6.0,17.0,94,0.00,,,0.00,,2013-12-19 13:11:00,
2013-12-19 04:21:00,20.0,19.0,29.70,East,88,9.0,17.0,94,0.00,,,0.00,,2013-12-19 13:21:00,
2013-12-19 04:42:00,20.0,19.0,29.69,East,95,6.0,15.0,94,0.00,,,0.00,,2013-12-19 13:42:00,
2013-12-19 04:52:00,20.0,19.0,29.69,East,82,3.0,14.0,94,0.00,,,0.00,,2013-12-19 13:52:00,
2013-12-19 05:21:00,19.0,17.0,29.71,East,82,3.0,12.0,93,0.00,,,0.00,,2013-12-19 14:21:00,
2013-12-19 05:42:00,19.0,17.0,29.71,East,83,2.0,12.0,93,0.00,,,0.00,,2013-12-19 14:42:00,
2013-12-19 05:52:00,19.0,17.0,29.72,NE,46,4.0,10.0,93,0.00,,,0.00,,2013-12-19 14:52:00,
2013-12-19 06:11:00,19.0,17.0,29.72,ENE,76,5.0,16.0,93,0.00,,,0.00,,2013-12-19 15:11:00,
2013-12-19 06:22:00,19.0,17.0,29.72,ENE,76,5.0,16.0,93,0.00,,,0.00,,2013-12-19 15:22:00,
2013-12-19 06:54:00,19.0,17.0,29.72,East,94,4.0,13.0,93,0.00,,,0.00,,2013-12-19 15:54:00,
2013-12-19 07:12:00,19.0,17.0,29.72,East,92,3.0,13.0,93,0.00,,,0.00,,2013-12-19 16:12:00,
2013-12-19 07:23:00,18.0,16.0,29.72,East,96,2.0,8.0,93,0.00,,,0.00,,2013-12-19 16:23:00,
2013-12-19 07:42:00,18.0,16.0,29.73,East,86,1.0,7.0,93,0.00,,,0.00,,2013-12-19 16:42:00,
2013-12-19 07:52:00,18.0,16.0,29.73,East,94,1.0,7.0,93,0.00,,,0.00,,2013-12-19 16:52:00,
2013-12-19 08:12:00,17.0,15.0,29.73,ESE,114,1.0,3.0,92,0.00,,,0.00,,2013-12-19 17:12:00,
2013-12-19 08:22:00,17.0,15.0,29.73,ESE,114,0.0,3.0,92,0.00,,,0.00,,2013-12-19 17:22:00,
2013-12-19 08:42:00,16.0,14.0,29.73,ESE,114,0.0,1.0,92,0.00,,,0.00,,2013-12-19 17:42:00,
2013-12-19 08:52:00,16.0,14.0,29.72,ESE,114,0.0,2.0,92,0.00,,,0.00,,2013-12-19 17:52:00,
2013-12-19 09:21:00,14.0,12.0,29.72,ESE,114,0.0,2.0,91,0.00,,,0.00,,2013-12-19 18:21:00,
2013-12-19 09:42:00,13.0,11.0,29.73,ESE,113,0.0,2.0,91,0.00,,,0.00,,2013-12-19 18:42:00,
2013-12-19 09:52:00,13.0,11.0,29.73,ESE,113,0.0,0.0,91,0.00,,,0.00,,2013-12-19 18:52:00,
2013-12-19 10:21:00,10.0,8.0,29.73,ESE,113,0.0,1.0,90,0.00,,,0.00,,2013-12-19 19:21:00,
2013-12-19 10:42:00,9.0,6.0,29.73,ESE,113,0.0,0.0,89,0.00,,,0.00,,2013-12-19 19:42:00,
2013-12-19 10:52:00,9.0,6.0,29.73,ESE,113,0.0,0.0,89,0.00,,,0.00,,2013-12-19 19:52:00,
2013-12-19 11:22:00,8.0,6.0,29.72,ESE,113,0.0,1.0,90,0.00,,,0.00,,2013-12-19 20:22:00,
2013-12-19 11:42:00,7.0,4.0,29.73,ESE,113,0.0,0.0,89,0.00,,,0.00,,2013-12-19 20:42:00,
2013-12-19 11:52:00,7.0,4.0,29.73,ESE,113,0.0,0.0,89,0.00,,,0.00,,2013-12-19 20:52:00,
2013-12-19 12:21:00,7.0,5.0,29.73,ESE,114,0.0,0.0,90,0.00,,,0.00,,2013-12-19 21:21:00,
2013-12-19 12:43:00,7.0,5.0,29.74,ESE,113,0.0,1.0,90,0.00,,,0.00,,2013-12-19 21:43:00,
2013-12-19 12:53:00,8.0,6.0,29.75,ESE,114,0.0,1.0,90,0.00,,,0.00,,2013-12-19 21:53:00,
2013-12-19 13:13:00,9.0,7.0,29.75,ESE,114,0.0,3.0,91,0.00,,,0.00,,2013-12-19 22:13:00,
2013-12-19 13:23:00,10.0,8.0,29.74,ESE,113,1.0,3.0,91,0.00,,,0.00,,2013-12-19 22:23:00,
2013-12-19 13:42:00,12.0,10.0,29.72,ENE,75,2.0,5.0,92,0.00,,,0.00,,2013-12-19 22:42:00,
2013-12-19 13:53:00,13.0,11.0,29.72,East,82,1.0,5.0,92,0.00,,,0.00,,2013-12-19 22:53:00,
2013-12-19 14:12:00,13.0,11.0,29.71,East,86,1.0,6.0,91,0.00,,,0.00,,2013-12-19 23:12:00,
2013-12-19 14:21:00,13.0,11.0,29.71,East,87,1.0,5.0,91,0.00,,,0.00,,2013-12-19 23:21:00,
2013-12-19 14:42:00,13.0,11.0,29.72,East,93,1.0,2.0,91,0.00,,,0.00,,2013-12-19 23:42:00,
2013-12-19 14:53:00,13.0,11.0,29.71,East,93,0.0,2.0,91,0.00,,,0.00,,2013-12-19 23:53:00,
2013-12-19 15:11:00,12.0,10.0,29.71,East,93,0.0,2.0,91,0.00,,,0.00,,2013-12-20 00:11:00,
2013-12-19 15:21:00,12.0,10.0,29.70,East,93,0.0,1.0,91,0.00,,,0.00,,2013-12-20 00:21:00,
2013-12-19 15:42:00,12.0,10.0,29.70,East,93,0.0,2.0,91,0.00,,,0.00,,2013-12-20 00:42:00,
2013-12-19 15:52:00,12.0,10.0,29.70,ENE,71,1.0,5.0,91,0.00,,,0.00,,2013-12-20 00:52:00,
2013-12-19 16:21:00,13.0,11.0,29.71,ENE,62,0.0,2.0,92,0.00,,,0.00,,2013-12-20 01:21:00,
2013-12-19 16:52:00,13.0,11.0,29.70,ENE,62,0.0,2.0,91,0.00,,,0.00,,2013-12-20 01:52:00,
2013-12-19 17:21:00,13.0,11.0,29.69,ENE,62,0.0,1.0,91,0.00,,,0.00,,2013-12-20 02:21:00,
2013-12-19 17:42:00,13.0,11.0,29.68,ENE,62,0.0,2.0,91,0.00,,,0.00,,2013-12-20 02:42:00,
2013-12-19 17:52:00,13.0,11.0,29.69,ENE,62,0.0,2.0,92,0.00,,,0.00,,2013-12-20 02:52:00,
2013-12-19 18:21:00,14.0,12.0,29.68,East,98,0.0,2.0,92,0.00,,,0.00,,2013-12-20 03:21:00,
2013-12-19 18:43:00,14.0,12.0,29.67,East,98,0.0,2.0,92,0.00,,,0.00,,2013-12-20 03:43:00,
2013-12-19 18:53:00,14.0,12.0,29.67,East,98,0.0,2.0,92,0.00,,,0.00,,2013-12-20 03:53:00,
2013-12-19 19:12:00,14.0,12.0,29.67,East,98,0.0,1.0,91,0.00,,,0.00,,2013-12-20 04:12:00,
2013-12-19 19:23:00,14.0,12.0,29.67,East,98,0.0,1.0,91,0.00,,,0.00,,2013-12-20 04:23:00,
2013-12-19 19:42:00,14.0,12.0,29.67,East,98,0.0,1.0,92,0.00,,,0.00,,2013-12-20 04:42:00,
2013-12-19 19:52:00,14.0,12.0,29.66,East,98,0.0,1.0,91,0.00,,,0.00,,2013-12-20 04:52:00,
2013-12-19 20:22:00,14.0,12.0,29.66,East,98,0.0,2.0,92,0.00,,,0.00,,2013-12-20 05:22:00,
2013-12-19 20:42:00,14.0,12.0,29.66,East,98,0.0,1.0,92,0.00,,,0.00,,2013-12-20 05:42:00,
2013-12-19 20:52:00,14.0,12.0,29.67,East,98,0.0,2.0,92,0.00,,,0.00,,2013-12-20 05:52:00,
2013-12-19 21:12:00,15.0,13.0,29.66,East,85,1.0,3.0,92,0.00,,,0.00,,2013-12-20 06:12:00,
2013-12-19 21:22:00,15.0,13.0,29.66,East,86,1.0,5.0,92,0.00,,,0.00,,2013-12-20 06:22:00,
2013-12-19 21:43:00,15.0,13.0,29.65,East,86,0.0,2.0,92,0.00,,,0.00,,2013-12-20 06:43:00,
2013-12-19 21:52:00,14.0,12.0,29.66,East,86,0.0,3.0,92,0.00,,,0.00,,2013-12-20 06:52:00,
2013-12-19 22:22:00,15.0,13.0,29.67,East,86,0.0,1.0,92,0.00,,,0.00,,2013-12-20 07:22:00,
2013-12-19 22:42:00,15.0,13.0,29.67,East,86,0.0,0.0,92,0.00,,,0.00,,2013-12-20 07:42:00,
2013-12-19 22:52:00,15.0,13.0,29.68,East,86,0.0,0.0,92,0.00,,,0.00,,2013-12-20 07:52:00,
2013-12-19 23:22:00,15.0,13.0,29.69,East,86,0.0,1.0,92,0.00,,,0.00,,2013-12-20 08:22:00,
2013-12-19 23:42:00,15.0,13.0,29.68,East,86,0.0,1.0,92,0.00,,,0.00,,2013-12-20 08:42:00,
2013-12-19 23:52:00,15.0,13.0,29.68,East,86,0.0,1.0,92,0.00,,,0.00,,2013-12-20 08:52:00,